Terminal Aerodrome Forecast
Issued by NWS St Louis, MO

Home | Current Version | Previous Version | Text Only | Print | Product List | Glossary On
Versions: 1 2 3 4 5 6 7 8 9 10 11 12 13 14 15 16 17 18
000
FTUS43 KLSX 250900 AAA
TAFCOU
TAF AMD
KCOU 250917Z 2509/2606 18007KT P6SM SKC
     FM251500 18015G23KT P6SM BKN250
     FM260000 16012KT P6SM BKN250=

USA.gov is the U.S. government's official web portal to all federal, state and local government web resources and services.